sensor_id;sensor_type;location;lat;lon;timestamp;P1;durP1;ratioP1;P2;durP2;ratioP2
49422;SDS011;36998;51.974;20.150;2022-10-04T00:00:29;13.27;;;2.95;;
49422;SDS011;36998;51.974;20.150;2022-10-04T00:03:07;11.38;;;5.05;;
49422;SDS011;36998;51.974;20.150;2022-10-04T00:05:37;11.45;;;3.65;;
49422;SDS011;36998;51.974;20.150;2022-10-04T00:08:21;13.45;;;4.43;;
49422;SDS011;36998;51.974;20.150;2022-10-04T00:11:15;17.88;;;5.05;;
49422;SDS011;36998;51.974;20.150;2022-10-04T00:13:48;18.23;;;3.95;;
49422;SDS011;36998;51.974;20.150;2022-10-04T00:16:27;9.05;;;3.88;;
49422;SDS011;36998;51.974;20.150;2022-10-04T00:19:20;16.38;;;4.35;;
49422;SDS011;36998;51.974;20.150;2022-10-04T00:24:23;20.75;;;3.97;;
49422;SDS011;36998;51.974;20.150;2022-10-04T00:29:48;12.48;;;4.25;;
49422;SDS011;36998;51.974;20.150;2022-10-04T00:32:46;11.27;;;4.10;;
49422;SDS011;36998;51.974;20.150;2022-10-04T00:40:25;8.68;;;3.28;;
49422;SDS011;36998;51.974;20.150;2022-10-04T00:42:56;8.27;;;3.25;;
49422;SDS011;36998;51.974;20.150;2022-10-04T00:45:27;17.35;;;3.67;;
49422;SDS011;36998;51.974;20.150;2022-10-04T00:48:09;10.45;;;3.55;;
49422;SDS011;36998;51.974;20.150;2022-10-04T00:50:51;7.60;;;3.63;;
49422;SDS011;36998;51.974;20.150;2022-10-04T00:53:35;7.65;;;2.40;;
49422;SDS011;36998;51.974;20.150;2022-10-04T00:56:10;10.25;;;2.85;;
49422;SDS011;36998;51.974;20.150;2022-10-04T01:01:25;6.38;;;2.83;;
49422;SDS011;36998;51.974;20.150;2022-10-04T01:03:53;6.50;;;2.58;;
49422;SDS011;36998;51.974;20.150;2022-10-04T01:06:21;10.98;;;2.70;;
49422;SDS011;36998;51.974;20.150;2022-10-04T01:08:52;9.75;;;2.25;;
49422;SDS011;36998;51.974;20.150;2022-10-04T01:11:22;7.07;;;2.22;;
49422;SDS011;36998;51.974;20.150;2022-10-04T01:13:57;7.93;;;2.20;;
49422;SDS011;36998;51.974;20.150;2022-10-04T01:16:30;11.07;;;2.30;;
49422;SDS011;36998;51.974;20.150;2022-10-04T01:19:46;5.00;;;2.33;;
49422;SDS011;36998;51.974;20.150;2022-10-04T01:24:32;6.10;;;2.80;;
49422;SDS011;36998;51.974;20.150;2022-10-04T01:27:02;7.40;;;2.28;;
49422;SDS011;36998;51.974;20.150;2022-10-04T01:29:48;9.10;;;2.60;;
49422;SDS011;36998;51.974;20.150;2022-10-04T01:32:14;3.30;;;2.42;;
49422;SDS011;36998;51.974;20.150;2022-10-04T01:34:41;7.55;;;2.42;;
49422;SDS011;36998;51.974;20.150;2022-10-04T01:37:09;10.38;;;2.47;;
49422;SDS011;36998;51.974;20.150;2022-10-04T01:39:34;4.82;;;2.50;;
49422;SDS011;36998;51.974;20.150;2022-10-04T01:44:56;11.52;;;2.85;;
49422;SDS011;36998;51.974;20.150;2022-10-04T01:50:00;6.93;;;2.38;;
49422;SDS011;36998;51.974;20.150;2022-10-04T01:52:34;7.47;;;2.75;;
49422;SDS011;36998;51.974;20.150;2022-10-04T01:55:04;4.75;;;2.50;;
49422;SDS011;36998;51.974;20.150;2022-10-04T01:57:36;4.57;;;2.65;;
49422;SDS011;36998;51.974;20.150;2022-10-04T02:00:10;6.70;;;2.88;;
49422;SDS011;36998;51.974;20.150;2022-10-04T02:02:43;10.63;;;2.97;;
49422;SDS011;36998;51.974;20.150;2022-10-04T02:05:17;14.27;;;3.03;;
49422;SDS011;36998;51.974;20.150;2022-10-04T02:07:50;12.18;;;3.17;;
49422;SDS011;36998;51.974;20.150;2022-10-04T02:10:19;12.77;;;3.58;;
49422;SDS011;36998;51.974;20.150;2022-10-04T02:12:47;13.18;;;3.28;;
49422;SDS011;36998;51.974;20.150;2022-10-04T02:15:15;10.55;;;3.30;;
49422;SDS011;36998;51.974;20.150;2022-10-04T02:20:12;8.23;;;3.28;;
49422;SDS011;36998;51.974;20.150;2022-10-04T02:22:45;8.73;;;2.90;;
49422;SDS011;36998;51.974;20.150;2022-10-04T02:25:14;12.75;;;3.45;;
49422;SDS011;36998;51.974;20.150;2022-10-04T02:27:45;13.13;;;3.95;;
49422;SDS011;36998;51.974;20.150;2022-10-04T02:30:11;11.15;;;3.50;;
49422;SDS011;36998;51.974;20.150;2022-10-04T02:32:38;13.80;;;3.53;;
49422;SDS011;36998;51.974;20.150;2022-10-04T02:35:22;9.18;;;2.60;;
49422;SDS011;36998;51.974;20.150;2022-10-04T02:40:28;12.43;;;3.45;;
49422;SDS011;36998;51.974;20.150;2022-10-04T02:43:03;10.18;;;3.78;;
49422;SDS011;36998;51.974;20.150;2022-10-04T02:48:30;18.23;;;4.47;;
49422;SDS011;36998;51.974;20.150;2022-10-04T02:51:06;14.55;;;3.95;;
49422;SDS011;36998;51.974;20.150;2022-10-04T02:53:44;19.45;;;4.53;;
49422;SDS011;36998;51.974;20.150;2022-10-04T02:56:15;14.57;;;4.35;;
49422;SDS011;36998;51.974;20.150;2022-10-04T02:58:42;12.02;;;4.28;;
49422;SDS011;36998;51.974;20.150;2022-10-04T03:01:16;16.58;;;4.53;;
49422;SDS011;36998;51.974;20.150;2022-10-04T03:03:50;11.15;;;4.35;;
49422;SDS011;36998;51.974;20.150;2022-10-04T03:06:18;13.85;;;4.55;;
49422;SDS011;36998;51.974;20.150;2022-10-04T03:08:54;11.98;;;5.22;;
49422;SDS011;36998;51.974;20.150;2022-10-04T03:11:24;13.90;;;4.93;;
49422;SDS011;36998;51.974;20.150;2022-10-04T03:13:54;12.55;;;5.32;;
49422;SDS011;36998;51.974;20.150;2022-10-04T03:16:23;18.15;;;6.07;;
49422;SDS011;36998;51.974;20.150;2022-10-04T03:18:51;14.32;;;5.50;;
49422;SDS011;36998;51.974;20.150;2022-10-04T03:21:21;13.48;;;3.42;;
49422;SDS011;36998;51.974;20.150;2022-10-04T03:23:48;13.52;;;5.40;;
49422;SDS011;36998;51.974;20.150;2022-10-04T03:28:54;11.10;;;4.75;;
49422;SDS011;36998;51.974;20.150;2022-10-04T03:31:23;14.38;;;4.78;;
49422;SDS011;36998;51.974;20.150;2022-10-04T03:33:50;15.18;;;5.05;;
49422;SDS011;36998;51.974;20.150;2022-10-04T03:36:19;13.95;;;4.55;;
49422;SDS011;36998;51.974;20.150;2022-10-04T03:38:46;9.63;;;3.97;;
49422;SDS011;36998;51.974;20.150;2022-10-04T03:41:13;16.08;;;4.38;;
49422;SDS011;36998;51.974;20.150;2022-10-04T03:43:44;10.43;;;3.85;;
49422;SDS011;36998;51.974;20.150;2022-10-04T03:46:10;10.32;;;4.43;;
49422;SDS011;36998;51.974;20.150;2022-10-04T03:48:39;9.57;;;3.70;;
49422;SDS011;36998;51.974;20.150;2022-10-04T03:51:11;15.43;;;4.65;;
49422;SDS011;36998;51.974;20.150;2022-10-04T03:53:43;9.23;;;3.50;;
49422;SDS011;36998;51.974;20.150;2022-10-04T03:56:12;10.75;;;3.67;;
49422;SDS011;36998;51.974;20.150;2022-10-04T03:58:43;16.33;;;4.22;;
49422;SDS011;36998;51.974;20.150;2022-10-04T04:01:19;10.68;;;2.92;;
49422;SDS011;36998;51.974;20.150;2022-10-04T04:04:17;18.45;;;3.85;;
49422;SDS011;36998;51.974;20.150;2022-10-04T04:07:01;14.52;;;4.35;;
49422;SDS011;36998;51.974;20.150;2022-10-04T04:09:42;13.30;;;3.85;;
49422;SDS011;36998;51.974;20.150;2022-10-04T04:12:25;12.52;;;3.60;;
49422;SDS011;36998;51.974;20.150;2022-10-04T04:14:59;18.92;;;4.30;;
49422;SDS011;36998;51.974;20.150;2022-10-04T04:19:52;15.82;;;3.95;;
49422;SDS011;36998;51.974;20.150;2022-10-04T04:22:18;10.45;;;3.42;;
49422;SDS011;36998;51.974;20.150;2022-10-04T04:24:45;13.38;;;4.05;;
49422;SDS011;36998;51.974;20.150;2022-10-04T04:27:11;11.88;;;4.88;;
49422;SDS011;36998;51.974;20.150;2022-10-04T04:29:45;15.27;;;5.50;;
49422;SDS011;36998;51.974;20.150;2022-10-04T04:32:21;17.83;;;4.57;;
49422;SDS011;36998;51.974;20.150;2022-10-04T04:34:53;16.42;;;4.78;;
49422;SDS011;36998;51.974;20.150;2022-10-04T04:37:22;17.83;;;4.80;;
49422;SDS011;36998;51.974;20.150;2022-10-04T04:39:49;22.42;;;6.05;;
49422;SDS011;36998;51.974;20.150;2022-10-04T04:42:31;12.43;;;5.25;;
49422;SDS011;36998;51.974;20.150;2022-10-04T04:45:00;19.50;;;6.80;;
49422;SDS011;36998;51.974;20.150;2022-10-04T04:47:42;21.77;;;7.47;;
49422;SDS011;36998;51.974;20.150;2022-10-04T04:55:22;20.00;;;7.60;;
49422;SDS011;36998;51.974;20.150;2022-10-04T04:57:50;23.02;;;7.40;;
49422;SDS011;36998;51.974;20.150;2022-10-04T05:00:20;11.10;;;5.70;;
49422;SDS011;36998;51.974;20.150;2022-10-04T05:02:54;19.15;;;8.20;;
49422;SDS011;36998;51.974;20.150;2022-10-04T05:05:23;16.27;;;8.25;;
49422;SDS011;36998;51.974;20.150;2022-10-04T05:08:12;18.25;;;7.57;;
49422;SDS011;36998;51.974;20.150;2022-10-04T05:10:49;18.75;;;8.07;;
49422;SDS011;36998;51.974;20.150;2022-10-04T05:13:21;20.50;;;8.43;;
49422;SDS011;36998;51.974;20.150;2022-10-04T05:15:52;22.45;;;8.15;;
49422;SDS011;36998;51.974;20.150;2022-10-04T05:18:31;19.67;;;8.13;;
49422;SDS011;36998;51.974;20.150;2022-10-04T05:21:02;14.02;;;6.03;;
49422;SDS011;36998;51.974;20.150;2022-10-04T05:23:31;16.10;;;8.48;;
49422;SDS011;36998;51.974;20.150;2022-10-04T05:25:58;23.95;;;10.23;;
49422;SDS011;36998;51.974;20.150;2022-10-04T05:28:26;19.30;;;8.32;;
49422;SDS011;36998;51.974;20.150;2022-10-04T05:33:36;23.63;;;6.97;;
49422;SDS011;36998;51.974;20.150;2022-10-04T05:41:50;19.40;;;7.13;;
49422;SDS011;36998;51.974;20.150;2022-10-04T05:44:23;18.08;;;7.80;;
49422;SDS011;36998;51.974;20.150;2022-10-04T05:47:10;20.58;;;8.77;;
49422;SDS011;36998;51.974;20.150;2022-10-04T05:49:44;17.45;;;6.90;;
49422;SDS011;36998;51.974;20.150;2022-10-04T05:52:15;15.02;;;7.32;;
49422;SDS011;36998;51.974;20.150;2022-10-04T05:55:06;11.63;;;5.95;;
49422;SDS011;36998;51.974;20.150;2022-10-04T06:06:36;17.52;;;7.10;;
49422;SDS011;36998;51.974;20.150;2022-10-04T06:09:07;16.08;;;6.97;;
49422;SDS011;36998;51.974;20.150;2022-10-04T06:11:52;14.43;;;5.27;;
49422;SDS011;36998;51.974;20.150;2022-10-04T06:14:43;13.80;;;7.47;;
49422;SDS011;36998;51.974;20.150;2022-10-04T06:20:33;12.98;;;5.97;;
49422;SDS011;36998;51.974;20.150;2022-10-04T06:23:12;13.38;;;7.13;;
49422;SDS011;36998;51.974;20.150;2022-10-04T06:25:50;18.23;;;6.75;;
49422;SDS011;36998;51.974;20.150;2022-10-04T06:28:31;14.60;;;6.68;;
49422;SDS011;36998;51.974;20.150;2022-10-04T06:53:13;13.10;;;7.22;;
49422;SDS011;36998;51.974;20.150;2022-10-04T06:56:11;18.15;;;8.40;;
49422;SDS011;36998;51.974;20.150;2022-10-04T07:02:20;18.35;;;7.35;;
49422;SDS011;36998;51.974;20.150;2022-10-04T07:04:55;13.85;;;7.13;;
49422;SDS011;36998;51.974;20.150;2022-10-04T07:10:04;15.30;;;8.10;;
49422;SDS011;36998;51.974;20.150;2022-10-04T07:12:41;9.80;;;5.30;;
49422;SDS011;36998;51.974;20.150;2022-10-04T07:15:25;10.45;;;5.68;;
49422;SDS011;36998;51.974;20.150;2022-10-04T07:17:56;10.45;;;5.05;;
49422;SDS011;36998;51.974;20.150;2022-10-04T07:20:29;8.85;;;5.13;;
49422;SDS011;36998;51.974;20.150;2022-10-04T07:22:59;11.95;;;6.00;;
49422;SDS011;36998;51.974;20.150;2022-10-04T07:25:41;9.70;;;5.10;;
49422;SDS011;36998;51.974;20.150;2022-10-04T07:31:12;11.27;;;5.22;;
49422;SDS011;36998;51.974;20.150;2022-10-04T07:33:51;15.88;;;5.75;;
49422;SDS011;36998;51.974;20.150;2022-10-04T07:36:30;8.82;;;5.30;;
49422;SDS011;36998;51.974;20.150;2022-10-04T07:39:09;14.35;;;5.13;;
49422;SDS011;36998;51.974;20.150;2022-10-04T07:41:52;12.15;;;5.93;;
49422;SDS011;36998;51.974;20.150;2022-10-04T07:46:57;6.82;;;4.22;;
49422;SDS011;36998;51.974;20.150;2022-10-04T07:49:27;7.78;;;4.95;;
49422;SDS011;36998;51.974;20.150;2022-10-04T07:52:01;9.77;;;3.60;;
49422;SDS011;36998;51.974;20.150;2022-10-04T07:54:40;10.52;;;3.22;;
49422;SDS011;36998;51.974;20.150;2022-10-04T08:00:01;4.97;;;2.67;;
49422;SDS011;36998;51.974;20.150;2022-10-04T08:05:51;7.93;;;2.67;;
49422;SDS011;36998;51.974;20.150;2022-10-04T08:16:30;11.88;;;4.65;;
49422;SDS011;36998;51.974;20.150;2022-10-04T08:19:10;10.95;;;4.68;;
49422;SDS011;36998;51.974;20.150;2022-10-04T08:21:54;14.43;;;5.45;;
49422;SDS011;36998;51.974;20.150;2022-10-04T08:24:47;9.70;;;4.63;;
49422;SDS011;36998;51.974;20.150;2022-10-04T08:30:27;8.55;;;4.50;;
49422;SDS011;36998;51.974;20.150;2022-10-04T08:38:42;6.68;;;3.53;;
49422;SDS011;36998;51.974;20.150;2022-10-04T08:41:26;7.68;;;4.45;;
49422;SDS011;36998;51.974;20.150;2022-10-04T08:50:00;7.57;;;3.42;;
49422;SDS011;36998;51.974;20.150;2022-10-04T08:58:06;5.53;;;3.15;;
49422;SDS011;36998;51.974;20.150;2022-10-04T09:09:29;7.63;;;3.30;;
49422;SDS011;36998;51.974;20.150;2022-10-04T09:12:13;9.30;;;2.47;;
49422;SDS011;36998;51.974;20.150;2022-10-04T09:20:20;6.88;;;2.25;;
49422;SDS011;36998;51.974;20.150;2022-10-04T09:26:02;4.13;;;1.60;;
49422;SDS011;36998;51.974;20.150;2022-10-04T09:28:52;3.85;;;2.22;;
49422;SDS011;36998;51.974;20.150;2022-10-04T09:48:40;7.47;;;2.15;;
49422;SDS011;36998;51.974;20.150;2022-10-04T09:57:56;5.95;;;2.70;;
49422;SDS011;36998;51.974;20.150;2022-10-04T10:01:12;8.45;;;3.25;;
49422;SDS011;36998;51.974;20.150;2022-10-04T10:03:49;7.90;;;2.90;;
49422;SDS011;36998;51.974;20.150;2022-10-04T10:06:23;2.22;;;1.58;;
49422;SDS011;36998;51.974;20.150;2022-10-04T10:12:23;9.23;;;2.40;;
49422;SDS011;36998;51.974;20.150;2022-10-04T10:15:21;7.70;;;4.22;;
49422;SDS011;36998;51.974;20.150;2022-10-04T10:23:41;6.28;;;3.13;;
49422;SDS011;36998;51.974;20.150;2022-10-04T10:26:30;9.77;;;3.63;;
49422;SDS011;36998;51.974;20.150;2022-10-04T10:34:57;11.88;;;4.55;;
49422;SDS011;36998;51.974;20.150;2022-10-04T10:48:38;13.23;;;4.82;;
49422;SDS011;36998;51.974;20.150;2022-10-04T10:51:31;7.68;;;4.15;;
49422;SDS011;36998;51.974;20.150;2022-10-04T10:57:30;9.25;;;3.60;;
49422;SDS011;36998;51.974;20.150;2022-10-04T11:00:03;6.93;;;3.13;;
49422;SDS011;36998;51.974;20.150;2022-10-04T11:05:47;10.38;;;3.17;;
49422;SDS011;36998;51.974;20.150;2022-10-04T11:08:33;9.52;;;4.35;;
49422;SDS011;36998;51.974;20.150;2022-10-04T11:14:20;9.80;;;3.63;;
49422;SDS011;36998;51.974;20.150;2022-10-04T11:17:04;7.63;;;3.80;;
49422;SDS011;36998;51.974;20.150;2022-10-04T11:28:21;7.13;;;2.30;;
49422;SDS011;36998;51.974;20.150;2022-10-04T11:37:32;6.82;;;2.75;;
49422;SDS011;36998;51.974;20.150;2022-10-04T11:40:56;8.02;;;3.25;;
49422;SDS011;36998;51.974;20.150;2022-10-04T12:00:18;3.30;;;2.50;;
49422;SDS011;36998;51.974;20.150;2022-10-04T12:08:37;7.15;;;2.60;;
49422;SDS011;36998;51.974;20.150;2022-10-04T12:14:04;5.45;;;2.00;;
49422;SDS011;36998;51.974;20.150;2022-10-04T12:19:53;5.47;;;2.60;;
49422;SDS011;36998;51.974;20.150;2022-10-04T12:33:18;4.97;;;2.75;;
49422;SDS011;36998;51.974;20.150;2022-10-04T12:35:55;6.07;;;2.47;;
49422;SDS011;36998;51.974;20.150;2022-10-04T12:55:40;4.30;;;1.83;;
49422;SDS011;36998;51.974;20.150;2022-10-04T12:58:27;3.80;;;1.85;;
49422;SDS011;36998;51.974;20.150;2022-10-04T13:01:32;3.38;;;1.88;;
49422;SDS011;36998;51.974;20.150;2022-10-04T13:15:29;2.45;;;1.63;;
49422;SDS011;36998;51.974;20.150;2022-10-04T13:21:15;6.97;;;2.03;;
49422;SDS011;36998;51.974;20.150;2022-10-04T13:23:52;3.78;;;1.63;;
49422;SDS011;36998;51.974;20.150;2022-10-04T13:31:58;4.18;;;1.95;;
49422;SDS011;36998;51.974;20.150;2022-10-04T13:40:16;4.75;;;1.52;;
49422;SDS011;36998;51.974;20.150;2022-10-04T13:43:12;8.30;;;1.85;;
49422;SDS011;36998;51.974;20.150;2022-10-04T13:46:12;7.05;;;1.50;;
49422;SDS011;36998;51.974;20.150;2022-10-04T13:49:03;3.20;;;1.65;;
49422;SDS011;36998;51.974;20.150;2022-10-04T13:51:42;6.27;;;1.67;;
49422;SDS011;36998;51.974;20.150;2022-10-04T13:57:52;3.63;;;1.38;;
49422;SDS011;36998;51.974;20.150;2022-10-04T14:09:09;10.68;;;1.65;;
49422;SDS011;36998;51.974;20.150;2022-10-04T14:12:04;3.70;;;1.40;;
49422;SDS011;36998;51.974;20.150;2022-10-04T14:14:46;4.57;;;1.30;;
49422;SDS011;36998;51.974;20.150;2022-10-04T14:23:10;8.48;;;1.40;;
49422;SDS011;36998;51.974;20.150;2022-10-04T14:26:16;6.80;;;2.28;;
49422;SDS011;36998;51.974;20.150;2022-10-04T14:31:50;4.38;;;1.73;;
49422;SDS011;36998;51.974;20.150;2022-10-04T14:37:19;3.15;;;1.30;;
49422;SDS011;36998;51.974;20.150;2022-10-04T14:42:46;12.50;;;2.00;;
49422;SDS011;36998;51.974;20.150;2022-10-04T14:45:41;4.32;;;1.65;;
49422;SDS011;36998;51.974;20.150;2022-10-04T14:53:57;8.02;;;2.10;;
49422;SDS011;36998;51.974;20.150;2022-10-04T14:59:38;8.23;;;2.17;;
49422;SDS011;36998;51.974;20.150;2022-10-04T15:04:59;7.05;;;2.05;;
49422;SDS011;36998;51.974;20.150;2022-10-04T15:07:36;5.40;;;1.60;;
49422;SDS011;36998;51.974;20.150;2022-10-04T15:10:15;5.75;;;2.78;;
49422;SDS011;36998;51.974;20.150;2022-10-04T15:13:02;5.90;;;2.30;;
49422;SDS011;36998;51.974;20.150;2022-10-04T15:18:29;4.22;;;2.35;;
49422;SDS011;36998;51.974;20.150;2022-10-04T15:21:03;8.27;;;2.97;;
49422;SDS011;36998;51.974;20.150;2022-10-04T15:23:58;11.25;;;3.33;;
49422;SDS011;36998;51.974;20.150;2022-10-04T15:29:18;10.15;;;3.15;;
49422;SDS011;36998;51.974;20.150;2022-10-04T15:32:00;9.73;;;3.50;;
49422;SDS011;36998;51.974;20.150;2022-10-04T15:34:53;7.55;;;2.60;;
49422;SDS011;36998;51.974;20.150;2022-10-04T15:40:20;6.15;;;2.67;;
49422;SDS011;36998;51.974;20.150;2022-10-04T15:43:05;8.48;;;2.65;;
49422;SDS011;36998;51.974;20.150;2022-10-04T15:51:43;10.80;;;3.67;;
49422;SDS011;36998;51.974;20.150;2022-10-04T15:57:31;13.40;;;4.82;;
49422;SDS011;36998;51.974;20.150;2022-10-04T16:00:25;16.73;;;5.75;;
49422;SDS011;36998;51.974;20.150;2022-10-04T16:03:03;18.17;;;5.97;;
49422;SDS011;36998;51.974;20.150;2022-10-04T16:05:55;18.20;;;5.40;;
49422;SDS011;36998;51.974;20.150;2022-10-04T16:11:33;15.60;;;5.53;;
49422;SDS011;36998;51.974;20.150;2022-10-04T16:17:21;15.30;;;5.63;;
49422;SDS011;36998;51.974;20.150;2022-10-04T16:20:02;14.70;;;5.47;;
49422;SDS011;36998;51.974;20.150;2022-10-04T16:25:48;13.88;;;6.65;;
49422;SDS011;36998;51.974;20.150;2022-10-04T16:28:25;18.27;;;7.78;;
49422;SDS011;36998;51.974;20.150;2022-10-04T16:31:17;24.95;;;8.90;;
49422;SDS011;36998;51.974;20.150;2022-10-04T16:33:54;20.25;;;8.27;;
49422;SDS011;36998;51.974;20.150;2022-10-04T16:36:26;22.10;;;8.20;;
49422;SDS011;36998;51.974;20.150;2022-10-04T16:39:07;20.60;;;8.38;;
49422;SDS011;36998;51.974;20.150;2022-10-04T16:42:03;23.35;;;8.80;;
49422;SDS011;36998;51.974;20.150;2022-10-04T16:44:37;25.80;;;8.75;;
49422;SDS011;36998;51.974;20.150;2022-10-04T16:47:19;23.27;;;9.20;;
49422;SDS011;36998;51.974;20.150;2022-10-04T16:49:53;22.58;;;9.63;;
49422;SDS011;36998;51.974;20.150;2022-10-04T16:52:40;24.25;;;9.70;;
49422;SDS011;36998;51.974;20.150;2022-10-04T16:55:20;26.13;;;11.10;;
49422;SDS011;36998;51.974;20.150;2022-10-04T17:01:02;38.38;;;11.27;;
49422;SDS011;36998;51.974;20.150;2022-10-04T17:03:49;27.98;;;10.30;;
49422;SDS011;36998;51.974;20.150;2022-10-04T17:06:24;31.08;;;11.32;;
49422;SDS011;36998;51.974;20.150;2022-10-04T17:14:34;22.30;;;10.20;;
49422;SDS011;36998;51.974;20.150;2022-10-04T17:17:22;24.35;;;10.35;;
49422;SDS011;36998;51.974;20.150;2022-10-04T17:23:16;25.30;;;9.38;;
49422;SDS011;36998;51.974;20.150;2022-10-04T17:25:46;40.47;;;13.82;;
49422;SDS011;36998;51.974;20.150;2022-10-04T17:28:26;41.55;;;14.93;;
49422;SDS011;36998;51.974;20.150;2022-10-04T17:31:13;33.45;;;14.88;;
49422;SDS011;36998;51.974;20.150;2022-10-04T17:34:00;27.25;;;11.13;;
49422;SDS011;36998;51.974;20.150;2022-10-04T17:36:55;22.85;;;9.98;;
49422;SDS011;36998;51.974;20.150;2022-10-04T17:39:38;22.95;;;9.60;;
49422;SDS011;36998;51.974;20.150;2022-10-04T17:42:14;27.98;;;9.02;;
49422;SDS011;36998;51.974;20.150;2022-10-04T17:44:59;21.95;;;8.15;;
49422;SDS011;36998;51.974;20.150;2022-10-04T17:48:00;21.33;;;8.38;;
49422;SDS011;36998;51.974;20.150;2022-10-04T17:51:01;17.95;;;8.55;;
49422;SDS011;36998;51.974;20.150;2022-10-04T17:53:59;25.23;;;8.83;;
49422;SDS011;36998;51.974;20.150;2022-10-04T17:56:50;25.58;;;9.43;;
49422;SDS011;36998;51.974;20.150;2022-10-04T17:59:40;24.65;;;8.68;;
49422;SDS011;36998;51.974;20.150;2022-10-04T18:05:16;24.52;;;7.93;;
49422;SDS011;36998;51.974;20.150;2022-10-04T18:07:52;21.85;;;8.57;;
49422;SDS011;36998;51.974;20.150;2022-10-04T18:10:24;21.35;;;8.70;;
49422;SDS011;36998;51.974;20.150;2022-10-04T18:13:26;21.05;;;8.10;;
49422;SDS011;36998;51.974;20.150;2022-10-04T18:16:01;21.73;;;8.68;;
49422;SDS011;36998;51.974;20.150;2022-10-04T18:18:41;32.50;;;14.18;;
49422;SDS011;36998;51.974;20.150;2022-10-04T18:23:39;22.80;;;8.30;;
49422;SDS011;36998;51.974;20.150;2022-10-04T18:26:25;28.13;;;9.00;;
49422;SDS011;36998;51.974;20.150;2022-10-04T18:28:52;27.47;;;9.07;;
49422;SDS011;36998;51.974;20.150;2022-10-04T18:34:00;30.38;;;10.95;;
49422;SDS011;36998;51.974;20.150;2022-10-04T18:36:51;28.35;;;11.05;;
49422;SDS011;36998;51.974;20.150;2022-10-04T18:39:29;32.28;;;11.02;;
49422;SDS011;36998;51.974;20.150;2022-10-04T18:42:27;27.15;;;9.52;;
49422;SDS011;36998;51.974;20.150;2022-10-04T18:44:58;26.02;;;9.35;;
49422;SDS011;36998;51.974;20.150;2022-10-04T18:47:30;27.10;;;9.43;;
49422;SDS011;36998;51.974;20.150;2022-10-04T18:50:32;22.52;;;8.50;;
49422;SDS011;36998;51.974;20.150;2022-10-04T18:56:02;20.75;;;8.30;;
49422;SDS011;36998;51.974;20.150;2022-10-04T18:58:34;22.35;;;8.55;;
49422;SDS011;36998;51.974;20.150;2022-10-04T19:13:00;21.60;;;8.27;;
49422;SDS011;36998;51.974;20.150;2022-10-04T19:24:02;17.67;;;7.18;;
49422;SDS011;36998;51.974;20.150;2022-10-04T19:26:43;28.23;;;8.32;;
49422;SDS011;36998;51.974;20.150;2022-10-04T19:32:26;17.88;;;7.00;;
49422;SDS011;36998;51.974;20.150;2022-10-04T19:37:36;18.58;;;7.72;;
49422;SDS011;36998;51.974;20.150;2022-10-04T19:40:21;16.13;;;6.82;;
49422;SDS011;36998;51.974;20.150;2022-10-04T19:43:10;18.83;;;7.30;;
49422;SDS011;36998;51.974;20.150;2022-10-04T19:45:46;17.08;;;6.88;;
49422;SDS011;36998;51.974;20.150;2022-10-04T19:48:58;18.85;;;7.47;;
49422;SDS011;36998;51.974;20.150;2022-10-04T19:53:53;21.13;;;7.30;;
49422;SDS011;36998;51.974;20.150;2022-10-04T19:56:30;16.67;;;7.35;;
49422;SDS011;36998;51.974;20.150;2022-10-04T19:59:04;20.63;;;7.18;;
49422;SDS011;36998;51.974;20.150;2022-10-04T20:01:35;19.42;;;8.73;;
49422;SDS011;36998;51.974;20.150;2022-10-04T20:04:01;21.13;;;7.85;;
49422;SDS011;36998;51.974;20.150;2022-10-04T20:06:56;24.58;;;8.80;;
49422;SDS011;36998;51.974;20.150;2022-10-04T20:15:11;18.67;;;7.47;;
49422;SDS011;36998;51.974;20.150;2022-10-04T20:17:53;23.40;;;8.35;;
49422;SDS011;36998;51.974;20.150;2022-10-04T20:23:04;20.80;;;8.20;;
49422;SDS011;36998;51.974;20.150;2022-10-04T20:28:35;24.98;;;8.63;;
49422;SDS011;36998;51.974;20.150;2022-10-04T20:31:09;21.00;;;8.40;;
49422;SDS011;36998;51.974;20.150;2022-10-04T20:34:21;24.58;;;8.25;;
49422;SDS011;36998;51.974;20.150;2022-10-04T20:36:47;18.75;;;8.77;;
49422;SDS011;36998;51.974;20.150;2022-10-04T20:42:12;21.67;;;8.52;;
49422;SDS011;36998;51.974;20.150;2022-10-04T20:47:48;24.85;;;7.55;;
49422;SDS011;36998;51.974;20.150;2022-10-04T20:53:32;22.73;;;8.63;;
49422;SDS011;36998;51.974;20.150;2022-10-04T20:56:09;23.88;;;9.02;;
49422;SDS011;36998;51.974;20.150;2022-10-04T20:58:38;22.33;;;8.82;;
49422;SDS011;36998;51.974;20.150;2022-10-04T21:01:24;24.70;;;8.15;;
49422;SDS011;36998;51.974;20.150;2022-10-04T21:06:58;34.42;;;8.48;;
49422;SDS011;36998;51.974;20.150;2022-10-04T21:09:27;25.05;;;7.95;;
49422;SDS011;36998;51.974;20.150;2022-10-04T21:11:56;23.45;;;9.65;;
49422;SDS011;36998;51.974;20.150;2022-10-04T21:14:26;26.30;;;9.57;;
49422;SDS011;36998;51.974;20.150;2022-10-04T21:16:56;20.35;;;8.55;;
49422;SDS011;36998;51.974;20.150;2022-10-04T21:21:58;21.25;;;6.90;;
49422;SDS011;36998;51.974;20.150;2022-10-04T21:30:13;19.65;;;7.60;;
49422;SDS011;36998;51.974;20.150;2022-10-04T21:32:42;19.27;;;7.32;;
49422;SDS011;36998;51.974;20.150;2022-10-04T21:35:08;20.08;;;7.10;;
49422;SDS011;36998;51.974;20.150;2022-10-04T21:37:34;20.83;;;7.63;;
49422;SDS011;36998;51.974;20.150;2022-10-04T21:40:00;21.83;;;8.63;;
49422;SDS011;36998;51.974;20.150;2022-10-04T21:42:26;20.65;;;7.68;;
49422;SDS011;36998;51.974;20.150;2022-10-04T21:44:52;21.33;;;7.82;;
49422;SDS011;36998;51.974;20.150;2022-10-04T21:47:18;23.30;;;7.90;;
49422;SDS011;36998;51.974;20.150;2022-10-04T21:49:47;18.98;;;8.07;;
49422;SDS011;36998;51.974;20.150;2022-10-04T21:52:14;20.83;;;8.50;;
49422;SDS011;36998;51.974;20.150;2022-10-04T21:54:42;16.35;;;7.68;;
49422;SDS011;36998;51.974;20.150;2022-10-04T21:57:09;22.13;;;8.38;;
49422;SDS011;36998;51.974;20.150;2022-10-04T21:59:35;19.17;;;8.02;;
49422;SDS011;36998;51.974;20.150;2022-10-04T22:02:00;23.15;;;8.40;;
49422;SDS011;36998;51.974;20.150;2022-10-04T22:04:26;17.13;;;8.05;;
49422;SDS011;36998;51.974;20.150;2022-10-04T22:06:51;24.67;;;8.40;;
49422;SDS011;36998;51.974;20.150;2022-10-04T22:09:17;16.00;;;7.55;;
49422;SDS011;36998;51.974;20.150;2022-10-04T22:11:42;19.77;;;8.63;;
49422;SDS011;36998;51.974;20.150;2022-10-04T22:14:08;18.17;;;7.10;;
49422;SDS011;36998;51.974;20.150;2022-10-04T22:16:33;19.15;;;7.05;;
49422;SDS011;36998;51.974;20.150;2022-10-04T22:18:59;20.85;;;7.20;;
49422;SDS011;36998;51.974;20.150;2022-10-04T22:21:24;18.50;;;7.47;;
49422;SDS011;36998;51.974;20.150;2022-10-04T22:23:50;19.55;;;7.20;;
49422;SDS011;36998;51.974;20.150;2022-10-04T22:26:17;16.92;;;7.13;;
49422;SDS011;36998;51.974;20.150;2022-10-04T22:28:45;18.25;;;6.28;;
49422;SDS011;36998;51.974;20.150;2022-10-04T22:31:17;11.90;;;6.70;;
49422;SDS011;36998;51.974;20.150;2022-10-04T22:33:44;16.63;;;7.20;;
49422;SDS011;36998;51.974;20.150;2022-10-04T22:36:14;14.00;;;6.53;;
49422;SDS011;36998;51.974;20.150;2022-10-04T22:38:44;17.15;;;6.72;;
49422;SDS011;36998;51.974;20.150;2022-10-04T22:41:26;22.75;;;7.28;;
49422;SDS011;36998;51.974;20.150;2022-10-04T22:43:57;17.40;;;7.28;;
49422;SDS011;36998;51.974;20.150;2022-10-04T22:46:31;12.43;;;6.20;;
49422;SDS011;36998;51.974;20.150;2022-10-04T22:49:00;14.00;;;6.40;;
49422;SDS011;36998;51.974;20.150;2022-10-04T22:51:29;18.45;;;7.32;;